sensor_id;sensor_type;location;lat;lon;timestamp;P1;durP1;ratioP1;P2;durP2;ratioP2
40871;SDS011;26591;43.264;26.940;2023-09-19T00:00:45;5.60;;;4.60;;
40871;SDS011;26591;43.264;26.940;2023-09-19T00:03:14;8.15;;;5.57;;
40871;SDS011;26591;43.264;26.940;2023-09-19T00:05:41;5.90;;;4.40;;
40871;SDS011;26591;43.264;26.940;2023-09-19T00:08:09;15.95;;;6.50;;
40871;SDS011;26591;43.264;26.940;2023-09-19T00:10:35;9.98;;;5.00;;
40871;SDS011;26591;43.264;26.940;2023-09-19T00:13:01;6.03;;;4.70;;
40871;SDS011;26591;43.264;26.940;2023-09-19T00:15:30;7.80;;;4.50;;
40871;SDS011;26591;43.264;26.940;2023-09-19T00:18:01;7.50;;;5.20;;
40871;SDS011;26591;43.264;26.940;2023-09-19T00:20:26;6.28;;;4.47;;
40871;SDS011;26591;43.264;26.940;2023-09-19T00:22:54;7.88;;;6.30;;
40871;SDS011;26591;43.264;26.940;2023-09-19T00:25:20;12.77;;;8.57;;
40871;SDS011;26591;43.264;26.940;2023-09-19T00:27:46;14.98;;;6.68;;
40871;SDS011;26591;43.264;26.940;2023-09-19T00:30:14;11.88;;;7.03;;
40871;SDS011;26591;43.264;26.940;2023-09-19T00:32:49;11.45;;;7.13;;
40871;SDS011;26591;43.264;26.940;2023-09-19T00:35:17;11.50;;;6.97;;
40871;SDS011;26591;43.264;26.940;2023-09-19T00:37:42;10.50;;;6.85;;
40871;SDS011;26591;43.264;26.940;2023-09-19T00:40:09;12.25;;;6.90;;
40871;SDS011;26591;43.264;26.940;2023-09-19T00:42:45;12.30;;;7.32;;
40871;SDS011;26591;43.264;26.940;2023-09-19T00:45:12;10.27;;;7.38;;
40871;SDS011;26591;43.264;26.940;2023-09-19T00:47:39;8.48;;;7.43;;
40871;SDS011;26591;43.264;26.940;2023-09-19T00:50:07;12.00;;;7.55;;
40871;SDS011;26591;43.264;26.940;2023-09-19T00:52:39;8.65;;;6.20;;
40871;SDS011;26591;43.264;26.940;2023-09-19T00:55:07;8.30;;;5.40;;
40871;SDS011;26591;43.264;26.940;2023-09-19T00:57:34;9.20;;;5.78;;
40871;SDS011;26591;43.264;26.940;2023-09-19T01:00:02;7.80;;;5.45;;
40871;SDS011;26591;43.264;26.940;2023-09-19T01:02:32;7.30;;;4.85;;
40871;SDS011;26591;43.264;26.940;2023-09-19T01:04:58;8.73;;;5.43;;
40871;SDS011;26591;43.264;26.940;2023-09-19T01:07:25;6.80;;;5.05;;
40871;SDS011;26591;43.264;26.940;2023-09-19T01:09:52;10.63;;;5.40;;
40871;SDS011;26591;43.264;26.940;2023-09-19T01:12:30;6.90;;;4.70;;
40871;SDS011;26591;43.264;26.940;2023-09-19T01:15:15;8.77;;;5.50;;
40871;SDS011;26591;43.264;26.940;2023-09-19T01:17:46;7.38;;;4.78;;
40871;SDS011;26591;43.264;26.940;2023-09-19T01:29:39;7.07;;;4.82;;
40871;SDS011;26591;43.264;26.940;2023-09-19T01:32:09;11.70;;;4.95;;
40871;SDS011;26591;43.264;26.940;2023-09-19T01:34:51;7.55;;;4.68;;
40871;SDS011;26591;43.264;26.940;2023-09-19T01:37:22;8.75;;;4.40;;
40871;SDS011;26591;43.264;26.940;2023-09-19T01:39:53;6.85;;;4.30;;
40871;SDS011;26591;43.264;26.940;2023-09-19T01:47:33;6.22;;;4.50;;
40871;SDS011;26591;43.264;26.940;2023-09-19T01:53:06;6.82;;;5.05;;
40871;SDS011;26591;43.264;26.940;2023-09-19T01:55:37;8.45;;;5.45;;
40871;SDS011;26591;43.264;26.940;2023-09-19T01:58:11;10.55;;;5.07;;
40871;SDS011;26591;43.264;26.940;2023-09-19T02:00:42;7.15;;;4.90;;
40871;SDS011;26591;43.264;26.940;2023-09-19T02:03:10;9.00;;;6.40;;
40871;SDS011;26591;43.264;26.940;2023-09-19T02:05:37;9.02;;;5.93;;
40871;SDS011;26591;43.264;26.940;2023-09-19T02:08:04;10.65;;;6.75;;
40871;SDS011;26591;43.264;26.940;2023-09-19T02:10:30;7.53;;;6.65;;
40871;SDS011;26591;43.264;26.940;2023-09-19T02:12:55;10.35;;;7.57;;
40871;SDS011;26591;43.264;26.940;2023-09-19T02:15:21;9.98;;;6.07;;
40871;SDS011;26591;43.264;26.940;2023-09-19T02:17:47;9.40;;;6.50;;
40871;SDS011;26591;43.264;26.940;2023-09-19T02:20:13;11.80;;;6.70;;
40871;SDS011;26591;43.264;26.940;2023-09-19T02:22:42;8.23;;;6.47;;
40871;SDS011;26591;43.264;26.940;2023-09-19T02:25:08;8.00;;;6.53;;
40871;SDS011;26591;43.264;26.940;2023-09-19T02:27:33;8.52;;;6.18;;
40871;SDS011;26591;43.264;26.940;2023-09-19T02:29:59;10.43;;;6.45;;
40871;SDS011;26591;43.264;26.940;2023-09-19T02:32:29;11.57;;;6.63;;
40871;SDS011;26591;43.264;26.940;2023-09-19T02:34:56;13.20;;;7.82;;
40871;SDS011;26591;43.264;26.940;2023-09-19T02:37:23;12.95;;;6.68;;
40871;SDS011;26591;43.264;26.940;2023-09-19T02:39:48;14.80;;;7.88;;
40871;SDS011;26591;43.264;26.940;2023-09-19T02:42:14;10.70;;;6.97;;
40871;SDS011;26591;43.264;26.940;2023-09-19T02:44:39;8.55;;;7.53;;
40871;SDS011;26591;43.264;26.940;2023-09-19T02:47:05;12.07;;;7.88;;
40871;SDS011;26591;43.264;26.940;2023-09-19T02:49:31;11.13;;;7.13;;
40871;SDS011;26591;43.264;26.940;2023-09-19T02:51:57;12.48;;;7.15;;
40871;SDS011;26591;43.264;26.940;2023-09-19T02:54:24;8.18;;;6.55;;
40871;SDS011;26591;43.264;26.940;2023-09-19T02:56:50;11.85;;;7.55;;
40871;SDS011;26591;43.264;26.940;2023-09-19T02:59:16;10.45;;;7.32;;
40871;SDS011;26591;43.264;26.940;2023-09-19T03:01:44;8.45;;;7.05;;
40871;SDS011;26591;43.264;26.940;2023-09-19T03:04:13;9.75;;;6.97;;
40871;SDS011;26591;43.264;26.940;2023-09-19T03:06:40;11.90;;;7.53;;
40871;SDS011;26591;43.264;26.940;2023-09-19T03:09:05;12.43;;;7.72;;
40871;SDS011;26591;43.264;26.940;2023-09-19T03:11:37;9.15;;;7.55;;
40871;SDS011;26591;43.264;26.940;2023-09-19T03:14:05;10.25;;;7.93;;
40871;SDS011;26591;43.264;26.940;2023-09-19T03:16:30;9.82;;;7.95;;
40871;SDS011;26591;43.264;26.940;2023-09-19T03:18:56;12.07;;;7.90;;
40871;SDS011;26591;43.264;26.940;2023-09-19T03:21:23;10.73;;;7.90;;
40871;SDS011;26591;43.264;26.940;2023-09-19T03:23:49;12.63;;;8.45;;
40871;SDS011;26591;43.264;26.940;2023-09-19T03:26:14;11.40;;;8.80;;
40871;SDS011;26591;43.264;26.940;2023-09-19T03:28:41;11.13;;;8.65;;
40871;SDS011;26591;43.264;26.940;2023-09-19T03:31:07;18.88;;;9.15;;
40871;SDS011;26591;43.264;26.940;2023-09-19T03:33:33;13.20;;;8.00;;
40871;SDS011;26591;43.264;26.940;2023-09-19T03:35:59;12.85;;;7.78;;
40871;SDS011;26591;43.264;26.940;2023-09-19T03:38:27;13.05;;;9.10;;
40871;SDS011;26591;43.264;26.940;2023-09-19T03:40:55;14.93;;;9.40;;
40871;SDS011;26591;43.264;26.940;2023-09-19T03:43:22;14.15;;;8.65;;
40871;SDS011;26591;43.264;26.940;2023-09-19T03:45:48;13.15;;;8.55;;
40871;SDS011;26591;43.264;26.940;2023-09-19T03:48:14;11.35;;;7.72;;
40871;SDS011;26591;43.264;26.940;2023-09-19T03:50:40;13.63;;;8.43;;
40871;SDS011;26591;43.264;26.940;2023-09-19T03:53:05;11.40;;;8.13;;
40871;SDS011;26591;43.264;26.940;2023-09-19T03:55:33;20.67;;;8.82;;
40871;SDS011;26591;43.264;26.940;2023-09-19T03:58:03;15.23;;;8.20;;
40871;SDS011;26591;43.264;26.940;2023-09-19T04:00:29;12.40;;;8.23;;
40871;SDS011;26591;43.264;26.940;2023-09-19T04:02:55;11.60;;;8.15;;
40871;SDS011;26591;43.264;26.940;2023-09-19T04:05:23;14.45;;;8.85;;
40871;SDS011;26591;43.264;26.940;2023-09-19T04:07:49;11.55;;;8.25;;
40871;SDS011;26591;43.264;26.940;2023-09-19T04:10:15;12.63;;;7.93;;
40871;SDS011;26591;43.264;26.940;2023-09-19T04:12:50;14.52;;;8.35;;
40871;SDS011;26591;43.264;26.940;2023-09-19T04:15:18;10.48;;;7.40;;
40871;SDS011;26591;43.264;26.940;2023-09-19T04:17:44;8.93;;;6.53;;
40871;SDS011;26591;43.264;26.940;2023-09-19T04:20:10;9.93;;;6.13;;
40871;SDS011;26591;43.264;26.940;2023-09-19T04:22:37;10.57;;;6.10;;
40871;SDS011;26591;43.264;26.940;2023-09-19T04:25:04;11.55;;;5.47;;
40871;SDS011;26591;43.264;26.940;2023-09-19T04:27:32;11.82;;;4.80;;
40871;SDS011;26591;43.264;26.940;2023-09-19T04:29:58;10.23;;;5.00;;
40871;SDS011;26591;43.264;26.940;2023-09-19T04:32:25;12.90;;;6.10;;
40871;SDS011;26591;43.264;26.940;2023-09-19T04:34:53;11.57;;;6.50;;
40871;SDS011;26591;43.264;26.940;2023-09-19T04:37:19;13.38;;;6.72;;
40871;SDS011;26591;43.264;26.940;2023-09-19T04:39:44;13.10;;;6.30;;
40871;SDS011;26591;43.264;26.940;2023-09-19T04:44:39;17.90;;;5.82;;
40871;SDS011;26591;43.264;26.940;2023-09-19T04:47:05;9.80;;;5.20;;
40871;SDS011;26591;43.264;26.940;2023-09-19T04:49:31;11.07;;;5.28;;
40871;SDS011;26591;43.264;26.940;2023-09-19T04:51:59;27.52;;;5.95;;
40871;SDS011;26591;43.264;26.940;2023-09-19T04:54:24;9.35;;;5.40;;
40871;SDS011;26591;43.264;26.940;2023-09-19T04:56:50;8.20;;;5.78;;
40871;SDS011;26591;43.264;26.940;2023-09-19T04:59:17;21.33;;;5.80;;
40871;SDS011;26591;43.264;26.940;2023-09-19T05:01:42;10.95;;;6.35;;
40871;SDS011;26591;43.264;26.940;2023-09-19T05:04:08;10.40;;;4.75;;
40871;SDS011;26591;43.264;26.940;2023-09-19T05:06:33;14.15;;;5.38;;
40871;SDS011;26591;43.264;26.940;2023-09-19T05:08:59;19.15;;;6.05;;
40871;SDS011;26591;43.264;26.940;2023-09-19T05:11:25;19.65;;;7.53;;
40871;SDS011;26591;43.264;26.940;2023-09-19T05:13:51;10.73;;;6.13;;
40871;SDS011;26591;43.264;26.940;2023-09-19T05:16:18;12.35;;;5.85;;
40871;SDS011;26591;43.264;26.940;2023-09-19T05:18:43;13.20;;;6.97;;
40871;SDS011;26591;43.264;26.940;2023-09-19T05:21:09;16.35;;;6.10;;
40871;SDS011;26591;43.264;26.940;2023-09-19T05:23:35;12.82;;;5.72;;
40871;SDS011;26591;43.264;26.940;2023-09-19T05:26:02;13.93;;;5.80;;
40871;SDS011;26591;43.264;26.940;2023-09-19T05:28:29;12.45;;;6.60;;
40871;SDS011;26591;43.264;26.940;2023-09-19T05:30:54;15.38;;;6.60;;
40871;SDS011;26591;43.264;26.940;2023-09-19T05:33:20;16.92;;;6.57;;
40871;SDS011;26591;43.264;26.940;2023-09-19T05:35:47;19.98;;;6.45;;
40871;SDS011;26591;43.264;26.940;2023-09-19T05:38:13;14.60;;;6.03;;
40871;SDS011;26591;43.264;26.940;2023-09-19T05:40:39;11.82;;;6.20;;
40871;SDS011;26591;43.264;26.940;2023-09-19T05:43:10;18.48;;;6.10;;
40871;SDS011;26591;43.264;26.940;2023-09-19T05:45:35;11.23;;;5.40;;
40871;SDS011;26591;43.264;26.940;2023-09-19T05:48:08;14.00;;;6.18;;
40871;SDS011;26591;43.264;26.940;2023-09-19T05:50:34;14.88;;;5.68;;
40871;SDS011;26591;43.264;26.940;2023-09-19T05:53:01;11.23;;;5.68;;
40871;SDS011;26591;43.264;26.940;2023-09-19T05:55:26;9.32;;;5.03;;
40871;SDS011;26591;43.264;26.940;2023-09-19T05:57:53;15.85;;;6.68;;
40871;SDS011;26591;43.264;26.940;2023-09-19T06:00:19;8.98;;;5.53;;
40871;SDS011;26591;43.264;26.940;2023-09-19T06:02:51;8.75;;;5.35;;
40871;SDS011;26591;43.264;26.940;2023-09-19T06:07:43;27.05;;;8.23;;
40871;SDS011;26591;43.264;26.940;2023-09-19T06:10:08;17.73;;;6.70;;
40871;SDS011;26591;43.264;26.940;2023-09-19T06:12:41;11.20;;;6.05;;
40871;SDS011;26591;43.264;26.940;2023-09-19T06:15:11;18.27;;;7.05;;
40871;SDS011;26591;43.264;26.940;2023-09-19T06:17:41;14.30;;;6.50;;
40871;SDS011;26591;43.264;26.940;2023-09-19T06:20:13;11.73;;;6.50;;
40871;SDS011;26591;43.264;26.940;2023-09-19T06:22:42;16.48;;;7.35;;
40871;SDS011;26591;43.264;26.940;2023-09-19T06:25:11;15.40;;;6.90;;
40871;SDS011;26591;43.264;26.940;2023-09-19T06:27:40;12.00;;;6.50;;
40871;SDS011;26591;43.264;26.940;2023-09-19T06:30:07;10.23;;;5.97;;
40871;SDS011;26591;43.264;26.940;2023-09-19T06:32:34;10.25;;;5.88;;
40871;SDS011;26591;43.264;26.940;2023-09-19T06:34:59;11.43;;;5.82;;
40871;SDS011;26591;43.264;26.940;2023-09-19T06:37:28;11.65;;;6.70;;
40871;SDS011;26591;43.264;26.940;2023-09-19T06:39:54;15.47;;;6.07;;
40871;SDS011;26591;43.264;26.940;2023-09-19T06:42:20;12.43;;;6.03;;
40871;SDS011;26591;43.264;26.940;2023-09-19T06:44:48;11.10;;;5.28;;
40871;SDS011;26591;43.264;26.940;2023-09-19T06:47:13;10.48;;;5.20;;
40871;SDS011;26591;43.264;26.940;2023-09-19T06:49:41;12.38;;;5.43;;
40871;SDS011;26591;43.264;26.940;2023-09-19T06:52:09;9.80;;;5.18;;
40871;SDS011;26591;43.264;26.940;2023-09-19T06:54:35;8.35;;;5.00;;
40871;SDS011;26591;43.264;26.940;2023-09-19T06:57:01;10.35;;;5.43;;
40871;SDS011;26591;43.264;26.940;2023-09-19T06:59:26;8.63;;;4.65;;
40871;SDS011;26591;43.264;26.940;2023-09-19T07:01:52;6.05;;;4.20;;
40871;SDS011;26591;43.264;26.940;2023-09-19T07:04:18;5.97;;;3.53;;
40871;SDS011;26591;43.264;26.940;2023-09-19T07:06:48;4.03;;;3.30;;
40871;SDS011;26591;43.264;26.940;2023-09-19T07:09:15;5.32;;;3.28;;
40871;SDS011;26591;43.264;26.940;2023-09-19T07:11:41;6.95;;;3.50;;
40871;SDS011;26591;43.264;26.940;2023-09-19T07:14:07;4.70;;;3.47;;
40871;SDS011;26591;43.264;26.940;2023-09-19T07:16:36;5.47;;;3.33;;
40871;SDS011;26591;43.264;26.940;2023-09-19T07:19:04;8.48;;;4.50;;
40871;SDS011;26591;43.264;26.940;2023-09-19T07:21:29;7.55;;;3.30;;
40871;SDS011;26591;43.264;26.940;2023-09-19T07:23:55;7.00;;;3.63;;
40871;SDS011;26591;43.264;26.940;2023-09-19T07:26:21;12.20;;;3.95;;
40871;SDS011;26591;43.264;26.940;2023-09-19T07:28:46;6.85;;;3.75;;
40871;SDS011;26591;43.264;26.940;2023-09-19T07:31:12;5.90;;;3.40;;
40871;SDS011;26591;43.264;26.940;2023-09-19T07:33:39;4.55;;;2.88;;
40871;SDS011;26591;43.264;26.940;2023-09-19T07:36:05;4.90;;;3.20;;
40871;SDS011;26591;43.264;26.940;2023-09-19T07:38:31;7.90;;;3.15;;
40871;SDS011;26591;43.264;26.940;2023-09-19T07:41:00;5.63;;;3.03;;
40871;SDS011;26591;43.264;26.940;2023-09-19T07:43:27;4.32;;;2.92;;
40871;SDS011;26591;43.264;26.940;2023-09-19T07:45:53;7.68;;;3.42;;
40871;SDS011;26591;43.264;26.940;2023-09-19T07:48:18;5.65;;;3.33;;
40871;SDS011;26591;43.264;26.940;2023-09-19T07:50:44;7.72;;;3.85;;
40871;SDS011;26591;43.264;26.940;2023-09-19T07:53:10;11.10;;;4.45;;
40871;SDS011;26591;43.264;26.940;2023-09-19T07:55:38;7.15;;;3.42;;
40871;SDS011;26591;43.264;26.940;2023-09-19T07:58:06;6.72;;;3.72;;
40871;SDS011;26591;43.264;26.940;2023-09-19T08:00:32;6.55;;;3.67;;
40871;SDS011;26591;43.264;26.940;2023-09-19T08:02:59;7.00;;;3.95;;
40871;SDS011;26591;43.264;26.940;2023-09-19T08:05:26;4.80;;;3.47;;
40871;SDS011;26591;43.264;26.940;2023-09-19T08:07:52;4.93;;;3.35;;
40871;SDS011;26591;43.264;26.940;2023-09-19T08:10:21;7.25;;;4.22;;
40871;SDS011;26591;43.264;26.940;2023-09-19T08:12:47;6.43;;;3.72;;
40871;SDS011;26591;43.264;26.940;2023-09-19T08:15:14;6.95;;;3.72;;
40871;SDS011;26591;43.264;26.940;2023-09-19T08:17:46;5.00;;;3.30;;
40871;SDS011;26591;43.264;26.940;2023-09-19T08:20:12;5.22;;;3.88;;
40871;SDS011;26591;43.264;26.940;2023-09-19T08:22:48;9.43;;;3.75;;
40871;SDS011;26591;43.264;26.940;2023-09-19T08:25:20;6.47;;;3.67;;
40871;SDS011;26591;43.264;26.940;2023-09-19T08:27:47;5.63;;;3.65;;
40871;SDS011;26591;43.264;26.940;2023-09-19T08:30:15;8.30;;;3.72;;
40871;SDS011;26591;43.264;26.940;2023-09-19T08:32:41;4.53;;;3.10;;
40871;SDS011;26591;43.264;26.940;2023-09-19T08:35:08;3.85;;;3.45;;
40871;SDS011;26591;43.264;26.940;2023-09-19T08:37:34;6.70;;;3.17;;
40871;SDS011;26591;43.264;26.940;2023-09-19T08:40:00;8.30;;;3.15;;
40871;SDS011;26591;43.264;26.940;2023-09-19T08:42:26;5.95;;;3.97;;
40871;SDS011;26591;43.264;26.940;2023-09-19T08:44:52;4.95;;;3.20;;
40871;SDS011;26591;43.264;26.940;2023-09-19T08:47:34;4.55;;;3.10;;
40871;SDS011;26591;43.264;26.940;2023-09-19T08:50:13;3.55;;;2.75;;
40871;SDS011;26591;43.264;26.940;2023-09-19T08:52:44;6.20;;;3.58;;
40871;SDS011;26591;43.264;26.940;2023-09-19T08:55:12;5.28;;;2.80;;
40871;SDS011;26591;43.264;26.940;2023-09-19T08:57:45;5.13;;;2.88;;
40871;SDS011;26591;43.264;26.940;2023-09-19T09:00:14;8.50;;;3.92;;
40871;SDS011;26591;43.264;26.940;2023-09-19T09:02:42;5.20;;;3.10;;
40871;SDS011;26591;43.264;26.940;2023-09-19T09:05:08;3.92;;;2.75;;
40871;SDS011;26591;43.264;26.940;2023-09-19T09:07:40;4.60;;;3.08;;
40871;SDS011;26591;43.264;26.940;2023-09-19T09:10:06;6.00;;;2.40;;
40871;SDS011;26591;43.264;26.940;2023-09-19T09:12:33;8.02;;;2.90;;
40871;SDS011;26591;43.264;26.940;2023-09-19T09:15:01;4.95;;;2.83;;
40871;SDS011;26591;43.264;26.940;2023-09-19T09:17:28;4.40;;;2.70;;
40871;SDS011;26591;43.264;26.940;2023-09-19T09:19:54;3.55;;;2.60;;
40871;SDS011;26591;43.264;26.940;2023-09-19T09:22:20;7.80;;;2.67;;
40871;SDS011;26591;43.264;26.940;2023-09-19T09:27:26;7.18;;;2.45;;
40871;SDS011;26591;43.264;26.940;2023-09-19T09:29:52;6.35;;;2.50;;
40871;SDS011;26591;43.264;26.940;2023-09-19T09:32:29;4.07;;;2.55;;
40871;SDS011;26591;43.264;26.940;2023-09-19T09:34:59;4.75;;;2.50;;
40871;SDS011;26591;43.264;26.940;2023-09-19T09:37:26;3.90;;;2.63;;
40871;SDS011;26591;43.264;26.940;2023-09-19T09:40:00;3.40;;;2.05;;
40871;SDS011;26591;43.264;26.940;2023-09-19T09:42:39;6.68;;;2.38;;
40871;SDS011;26591;43.264;26.940;2023-09-19T09:45:17;3.25;;;2.25;;
40871;SDS011;26591;43.264;26.940;2023-09-19T09:47:53;6.05;;;2.60;;
40871;SDS011;26591;43.264;26.940;2023-09-19T09:52:55;5.07;;;2.28;;
40871;SDS011;26591;43.264;26.940;2023-09-19T09:58:50;5.63;;;2.55;;
40871;SDS011;26591;43.264;26.940;2023-09-19T10:01:21;3.63;;;2.15;;
40871;SDS011;26591;43.264;26.940;2023-09-19T10:03:52;6.68;;;2.38;;
40871;SDS011;26591;43.264;26.940;2023-09-19T10:06:22;3.58;;;2.42;;
40871;SDS011;26591;43.264;26.940;2023-09-19T10:08:57;3.03;;;2.22;;
40871;SDS011;26591;43.264;26.940;2023-09-19T10:11:40;4.93;;;2.28;;
40871;SDS011;26591;43.264;26.940;2023-09-19T10:14:08;2.97;;;2.03;;
40871;SDS011;26591;43.264;26.940;2023-09-19T10:16:35;2.83;;;1.98;;
40871;SDS011;26591;43.264;26.940;2023-09-19T10:19:05;3.25;;;2.08;;
40871;SDS011;26591;43.264;26.940;2023-09-19T10:21:34;3.90;;;2.10;;
40871;SDS011;26591;43.264;26.940;2023-09-19T10:24:01;3.10;;;2.10;;
40871;SDS011;26591;43.264;26.940;2023-09-19T10:26:32;4.82;;;1.95;;
40871;SDS011;26591;43.264;26.940;2023-09-19T10:29:01;2.65;;;1.77;;
40871;SDS011;26591;43.264;26.940;2023-09-19T10:31:29;2.22;;;1.88;;
40871;SDS011;26591;43.264;26.940;2023-09-19T10:34:02;5.43;;;2.30;;
40871;SDS011;26591;43.264;26.940;2023-09-19T10:36:32;3.33;;;2.03;;
40871;SDS011;26591;43.264;26.940;2023-09-19T10:39:01;4.70;;;2.10;;
40871;SDS011;26591;43.264;26.940;2023-09-19T10:41:31;5.43;;;2.33;;
40871;SDS011;26591;43.264;26.940;2023-09-19T10:43:59;3.58;;;2.10;;
40871;SDS011;26591;43.264;26.940;2023-09-19T10:46:31;3.42;;;2.28;;
40871;SDS011;26591;43.264;26.940;2023-09-19T10:49:01;3.58;;;1.80;;
40871;SDS011;26591;43.264;26.940;2023-09-19T10:51:31;3.92;;;1.90;;
40871;SDS011;26591;43.264;26.940;2023-09-19T10:54:08;4.10;;;2.10;;
40871;SDS011;26591;43.264;26.940;2023-09-19T10:56:38;7.68;;;2.10;;
40871;SDS011;26591;43.264;26.940;2023-09-19T10:59:10;7.18;;;2.10;;
40871;SDS011;26591;43.264;26.940;2023-09-19T11:01:53;5.00;;;2.22;;
40871;SDS011;26591;43.264;26.940;2023-09-19T11:07:05;6.78;;;2.25;;
40871;SDS011;26591;43.264;26.940;2023-09-19T11:12:08;2.78;;;1.90;;
40871;SDS011;26591;43.264;26.940;2023-09-19T11:14:37;3.97;;;2.15;;
40871;SDS011;26591;43.264;26.940;2023-09-19T11:30:50;4.15;;;2.33;;
40871;SDS011;26591;43.264;26.940;2023-09-19T11:33:20;3.60;;;2.05;;
40871;SDS011;26591;43.264;26.940;2023-09-19T11:43:45;4.38;;;1.85;;
40871;SDS011;26591;43.264;26.940;2023-09-19T11:46:11;4.25;;;2.20;;
40871;SDS011;26591;43.264;26.940;2023-09-19T11:48:40;5.20;;;2.17;;
40871;SDS011;26591;43.264;26.940;2023-09-19T11:51:20;3.90;;;2.17;;
40871;SDS011;26591;43.264;26.940;2023-09-19T11:53:53;3.88;;;1.90;;
40871;SDS011;26591;43.264;26.940;2023-09-19T11:56:21;5.63;;;2.00;;
40871;SDS011;26591;43.264;26.940;2023-09-19T11:58:51;4.53;;;2.15;;
40871;SDS011;26591;43.264;26.940;2023-09-19T12:01:31;2.78;;;1.83;;
40871;SDS011;26591;43.264;26.940;2023-09-19T12:03:58;5.88;;;2.42;;
40871;SDS011;26591;43.264;26.940;2023-09-19T12:06:27;3.25;;;2.13;;
40871;SDS011;26591;43.264;26.940;2023-09-19T12:08:55;3.45;;;2.20;;
40871;SDS011;26591;43.264;26.940;2023-09-19T12:11:22;2.90;;;2.00;;
40871;SDS011;26591;43.264;26.940;2023-09-19T12:13:48;2.50;;;1.77;;
40871;SDS011;26591;43.264;26.940;2023-09-19T12:16:18;3.55;;;1.88;;
40871;SDS011;26591;43.264;26.940;2023-09-19T12:18:48;3.90;;;1.95;;
40871;SDS011;26591;43.264;26.940;2023-09-19T12:21:52;4.57;;;1.80;;
40871;SDS011;26591;43.264;26.940;2023-09-19T12:24:13;3.08;;;2.00;;
40871;SDS011;26591;43.264;26.940;2023-09-19T12:26:39;2.55;;;2.00;;
40871;SDS011;26591;43.264;26.940;2023-09-19T12:29:13;3.60;;;1.95;;
40871;SDS011;26591;43.264;26.940;2023-09-19T12:34:30;3.65;;;1.70;;
40871;SDS011;26591;43.264;26.940;2023-09-19T12:37:09;3.20;;;1.75;;
40871;SDS011;26591;43.264;26.940;2023-09-19T12:39:40;3.95;;;2.10;;
40871;SDS011;26591;43.264;26.940;2023-09-19T12:42:08;3.92;;;2.17;;
40871;SDS011;26591;43.264;26.940;2023-09-19T12:44:38;5.75;;;1.98;;
40871;SDS011;26591;43.264;26.940;2023-09-19T12:47:11;3.10;;;1.85;;
40871;SDS011;26591;43.264;26.940;2023-09-19T13:00:38;3.75;;;1.92;;
40871;SDS011;26591;43.264;26.940;2023-09-19T13:03:12;2.03;;;1.63;;
40871;SDS011;26591;43.264;26.940;2023-09-19T13:05:50;6.25;;;2.00;;
40871;SDS011;26591;43.264;26.940;2023-09-19T13:08:27;5.95;;;2.25;;
40871;SDS011;26591;43.264;26.940;2023-09-19T13:11:17;5.22;;;2.25;;
40871;SDS011;26591;43.264;26.940;2023-09-19T13:16:33;3.65;;;2.15;;
40871;SDS011;26591;43.264;26.940;2023-09-19T13:18:58;2.58;;;1.88;;
40871;SDS011;26591;43.264;26.940;2023-09-19T13:21:28;3.20;;;1.80;;
40871;SDS011;26591;43.264;26.940;2023-09-19T13:26:51;3.22;;;1.75;;
40871;SDS011;26591;43.264;26.940;2023-09-19T13:29:17;3.25;;;2.08;;
40871;SDS011;26591;43.264;26.940;2023-09-19T13:31:47;2.97;;;2.03;;
40871;SDS011;26591;43.264;26.940;2023-09-19T13:34:13;2.42;;;1.55;;
40871;SDS011;26591;43.264;26.940;2023-09-19T13:36:41;3.50;;;1.90;;
40871;SDS011;26591;43.264;26.940;2023-09-19T13:39:07;4.03;;;2.13;;
40871;SDS011;26591;43.264;26.940;2023-09-19T13:41:34;2.67;;;1.65;;
40871;SDS011;26591;43.264;26.940;2023-09-19T13:44:03;22.80;;;9.55;;
40871;SDS011;26591;43.264;26.940;2023-09-19T13:46:29;7.40;;;2.20;;
40871;SDS011;26591;43.264;26.940;2023-09-19T13:48:58;4.10;;;1.80;;
40871;SDS011;26591;43.264;26.940;2023-09-19T13:51:25;4.95;;;1.95;;
40871;SDS011;26591;43.264;26.940;2023-09-19T13:53:51;3.92;;;2.47;;
40871;SDS011;26591;43.264;26.940;2023-09-19T13:56:17;2.10;;;1.80;;
40871;SDS011;26591;43.264;26.940;2023-09-19T13:58:42;2.50;;;1.73;;
40871;SDS011;26591;43.264;26.940;2023-09-19T14:01:08;5.90;;;1.55;;
40871;SDS011;26591;43.264;26.940;2023-09-19T14:03:41;3.92;;;1.98;;
40871;SDS011;26591;43.264;26.940;2023-09-19T14:06:12;6.10;;;3.55;;
40871;SDS011;26591;43.264;26.940;2023-09-19T14:08:38;5.93;;;2.25;;
40871;SDS011;26591;43.264;26.940;2023-09-19T14:11:07;4.70;;;2.40;;
40871;SDS011;26591;43.264;26.940;2023-09-19T14:13:33;4.57;;;2.55;;
40871;SDS011;26591;43.264;26.940;2023-09-19T14:16:06;5.18;;;2.70;;
40871;SDS011;26591;43.264;26.940;2023-09-19T14:18:33;7.68;;;3.28;;
40871;SDS011;26591;43.264;26.940;2023-09-19T14:21:02;7.13;;;2.35;;
40871;SDS011;26591;43.264;26.940;2023-09-19T14:23:29;8.23;;;3.20;;
40871;SDS011;26591;43.264;26.940;2023-09-19T14:26:00;3.47;;;2.00;;
40871;SDS011;26591;43.264;26.940;2023-09-19T14:28:26;5.00;;;2.25;;
40871;SDS011;26591;43.264;26.940;2023-09-19T14:30:52;3.30;;;1.92;;
40871;SDS011;26591;43.264;26.940;2023-09-19T14:33:17;6.07;;;1.80;;
40871;SDS011;26591;43.264;26.940;2023-09-19T14:35:43;2.67;;;2.03;;
40871;SDS011;26591;43.264;26.940;2023-09-19T14:38:09;4.60;;;2.17;;
40871;SDS011;26591;43.264;26.940;2023-09-19T14:40:34;5.18;;;2.42;;
40871;SDS011;26591;43.264;26.940;2023-09-19T14:43:01;4.85;;;2.90;;
40871;SDS011;26591;43.264;26.940;2023-09-19T14:45:27;3.10;;;2.03;;
40871;SDS011;26591;43.264;26.940;2023-09-19T14:47:53;4.78;;;2.20;;
40871;SDS011;26591;43.264;26.940;2023-09-19T14:50:21;4.10;;;2.20;;
40871;SDS011;26591;43.264;26.940;2023-09-19T14:52:47;6.63;;;2.65;;
40871;SDS011;26591;43.264;26.940;2023-09-19T14:55:15;4.32;;;2.20;;
40871;SDS011;26591;43.264;26.940;2023-09-19T14:57:41;2.72;;;2.15;;
40871;SDS011;26591;43.264;26.940;2023-09-19T15:00:10;4.40;;;2.70;;
40871;SDS011;26591;43.264;26.940;2023-09-19T15:02:37;3.13;;;1.98;;
40871;SDS011;26591;43.264;26.940;2023-09-19T15:05:05;3.50;;;2.30;;
40871;SDS011;26591;43.264;26.940;2023-09-19T15:07:33;5.28;;;3.45;;
40871;SDS011;26591;43.264;26.940;2023-09-19T15:10:01;11.57;;;7.00;;
40871;SDS011;26591;43.264;26.940;2023-09-19T15:12:29;10.75;;;4.00;;
40871;SDS011;26591;43.264;26.940;2023-09-19T15:14:55;8.13;;;6.22;;
40871;SDS011;26591;43.264;26.940;2023-09-19T15:17:21;8.65;;;3.78;;
40871;SDS011;26591;43.264;26.940;2023-09-19T15:19:49;7.35;;;3.63;;
40871;SDS011;26591;43.264;26.940;2023-09-19T15:22:14;3.22;;;2.28;;
40871;SDS011;26591;43.264;26.940;2023-09-19T15:24:40;10.43;;;2.15;;
40871;SDS011;26591;43.264;26.940;2023-09-19T15:27:06;14.65;;;3.40;;
40871;SDS011;26591;43.264;26.940;2023-09-19T15:29:31;10.55;;;3.53;;
40871;SDS011;26591;43.264;26.940;2023-09-19T15:31:57;4.93;;;2.58;;
40871;SDS011;26591;43.264;26.940;2023-09-19T15:34:27;5.80;;;2.47;;
40871;SDS011;26591;43.264;26.940;2023-09-19T15:36:53;5.60;;;3.20;;
40871;SDS011;26591;43.264;26.940;2023-09-19T15:39:19;6.43;;;3.00;;
40871;SDS011;26591;43.264;26.940;2023-09-19T15:41:47;5.75;;;2.78;;
40871;SDS011;26591;43.264;26.940;2023-09-19T15:44:17;8.75;;;4.20;;
40871;SDS011;26591;43.264;26.940;2023-09-19T15:46:44;15.13;;;6.65;;
40871;SDS011;26591;43.264;26.940;2023-09-19T15:49:10;5.93;;;2.97;;
40871;SDS011;26591;43.264;26.940;2023-09-19T15:51:36;7.88;;;4.05;;
40871;SDS011;26591;43.264;26.940;2023-09-19T15:54:07;7.53;;;4.00;;